Time;durP1;ratioP1;P1;durP2;ratioP2;P2;SDS_P1;SDS_P2;PMS_P1;PMS_P2;Temp;Humidity;BMP_temperature;BMP_pressure;BME280_temperature;BME280_humidity;BME280_pressure;Samples;Min_cycle;Max_cycle;Signal;HPM_P1;HPM_P2
2022/12/22 03:26:27;;;;;;;4.68;1.77;;;8.20;99.90;;;;;;5010384;28;20057;-83
2022/12/22 03:28:53;;;;;;;1.02;1.02;;;8.10;99.90;;;;;;5010656;28;20045;-84
2022/12/22 03:31:19;;;;;;;1.73;1.58;;;8.20;99.90;;;;;;5005730;28;20260;-88
2022/12/22 03:33:45;;;;;;;3.30;2.30;;;8.10;99.90;;;;;;5022049;28;20056;-90
2022/12/22 03:36:10;;;;;;;3.92;2.78;;;8.10;99.90;;;;;;4992476;28;20056;-85
2022/12/22 03:38:36;;;;;;;3.22;2.78;;;8.10;99.90;;;;;;5009426;28;20092;-86
2022/12/22 03:41:02;;;;;;;2.45;1.67;;;8.10;99.90;;;;;;5013431;28;20045;-83
2022/12/22 03:46:29;;;;;;;1.77;1.73;;;8.10;99.90;;;;;;5013697;28;20053;-88
2022/12/22 03:49:09;;;;;;;3.97;2.10;;;8.10;99.90;;;;;;5008115;28;20065;-86
2022/12/22 03:51:36;;;;;;;0.70;0.70;;;8.10;99.90;;;;;;4995994;28;20170;-86
2022/12/22 03:54:02;;;;;;;2.47;2.38;;;8.10;99.90;;;;;;5014475;28;20125;-89
2022/12/22 03:56:28;;;;;;;1.83;1.73;;;8.10;99.90;;;;;;5014131;28;20382;-85
2022/12/22 03:58:54;;;;;;;2.47;2.28;;;8.10;99.90;;;;;;5007398;28;20053;-86
2022/12/22 04:01:20;;;;;;;2.40;2.03;;;8.00;99.90;;;;;;5012452;28;20101;-86
2022/12/22 04:03:47;;;;;;;;;;;8.00;99.90;;;;;;5011301;28;20045;-84
2022/12/22 04:06:12;;;;;;;2.03;1.77;;;8.10;99.90;;;;;;5021761;28;19929;-85
2022/12/22 04:08:38;;;;;;;1.55;1.00;;;8.10;99.90;;;;;;4992467;28;20053;-87
2022/12/22 04:13:48;;;;;;;1.00;1.00;;;8.00;99.90;;;;;;5011229;28;20080;-87
2022/12/22 04:16:14;;;;;;;3.05;1.90;;;8.00;99.90;;;;;;5007241;28;20230;-83
2022/12/22 04:18:39;;;;;;;0.90;0.90;;;8.00;99.90;;;;;;4991390;28;20049;-88
2022/12/22 04:21:05;;;;;;;0.70;0.70;;;8.00;99.90;;;;;;4993928;28;20049;-83
2022/12/22 04:23:31;;;;;;;0.88;0.70;;;8.00;99.90;;;;;;5009130;28;20107;-89
2022/12/22 04:25:56;;;;;;;1.10;1.10;;;8.00;99.90;;;;;;5011643;28;20464;-86
2022/12/22 04:28:22;;;;;;;1.30;1.17;;;8.00;99.90;;;;;;5021393;28;20056;-85
2022/12/22 04:30:51;;;;;;;0.50;0.50;;;8.00;99.90;;;;;;4992589;28;20052;-84
2022/12/22 04:33:17;;;;;;;0.85;0.85;;;8.00;99.90;;;;;;4993157;28;21666;-85
2022/12/22 04:35:43;;;;;;;0.70;0.70;;;8.00;99.90;;;;;;5022167;28;20050;-87
2022/12/22 04:38:08;;;;;;;0.75;0.75;;;8.00;99.90;;;;;;4994489;28;20050;-85
2022/12/22 04:40:34;;;;;;;0.65;0.65;;;8.00;99.90;;;;;;5011973;28;20072;-85
2022/12/22 04:43:00;;;;;;;0.47;0.47;;;8.00;99.90;;;;;;5006134;28;20059;-84
2022/12/22 04:45:26;;;;;;;1.17;1.15;;;7.90;99.90;;;;;;5028076;28;20468;-87
2022/12/22 04:47:51;;;;;;;0.80;0.80;;;7.90;99.90;;;;;;5019755;28;20132;-83
2022/12/22 04:50:17;;;;;;;2.17;0.77;;;7.90;99.90;;;;;;5010190;28;21017;-84
2022/12/22 04:52:43;;;;;;;1.52;1.48;;;7.90;99.90;;;;;;4990378;28;20064;-85
2022/12/22 04:55:09;;;;;;;0.60;0.60;;;7.90;99.90;;;;;;5009157;28;20053;-85
2022/12/22 04:57:35;;;;;;;0.93;0.85;;;7.80;99.90;;;;;;4989443;28;20184;-86
2022/12/22 05:00:01;;;;;;;;;;;7.80;99.90;;;;;;5007364;28;20091;-85
2022/12/22 05:02:26;;;;;;;2.13;1.08;;;7.80;99.90;;;;;;5024896;28;19929;-86
2022/12/22 05:04:52;;;;;;;0.50;0.50;;;7.90;99.90;;;;;;5015458;28;20423;-86
2022/12/22 05:07:19;;;;;;;0.40;0.40;;;7.80;99.90;;;;;;5008931;28;20049;-87
2022/12/22 05:09:45;;;;;;;2.15;2.05;;;7.80;99.90;;;;;;5009475;28;20052;-88
2022/12/22 05:14:55;;;;;;;6.38;3.17;;;7.80;99.90;;;;;;5010521;28;20045;-86
2022/12/22 05:17:20;;;;;;;2.60;2.50;;;7.80;99.90;;;;;;4992728;28;20488;-85
2022/12/22 05:19:46;;;;;;;1.48;1.42;;;7.80;99.90;;;;;;5024954;28;20102;-86
2022/12/22 05:22:12;;;;;;;1.35;1.30;;;7.80;99.90;;;;;;5027404;28;20128;-85
2022/12/22 05:24:37;;;;;;;2.90;1.70;;;7.80;99.90;;;;;;5024890;28;20246;-86
2022/12/22 05:27:03;;;;;;;1.38;1.30;;;7.80;99.90;;;;;;5009384;28;21846;-89
2022/12/22 05:29:29;;;;;;;1.50;1.50;;;7.80;99.90;;;;;;4990789;28;20171;-86
2022/12/22 05:31:54;;;;;;;5.70;3.28;;;7.70;99.90;;;;;;5006736;28;20136;-83
2022/12/22 05:34:20;;;;;;;1.48;1.38;;;7.80;99.90;;;;;;5008331;28;20136;-86
2022/12/22 05:36:46;;;;;;;1.80;1.65;;;7.80;99.90;;;;;;4990008;28;20140;-84
2022/12/22 05:39:12;;;;;;;2.05;1.95;;;7.70;99.90;;;;;;5026877;28;20057;-88
2022/12/22 05:41:37;;;;;;;1.60;1.50;;;7.80;99.90;;;;;;5009432;28;20038;-88
2022/12/22 05:44:03;;;;;;;1.23;1.15;;;7.60;99.90;;;;;;4989159;28;20200;-86
2022/12/22 05:46:29;;;;;;;0.70;0.70;;;7.60;99.90;;;;;;5007690;28;20042;-84
2022/12/22 05:48:54;;;;;;;0.70;0.70;;;7.60;99.90;;;;;;4996113;28;20049;-85
2022/12/22 05:51:20;;;;;;;0.60;0.60;;;7.50;99.90;;;;;;5008312;28;20053;-89
2022/12/22 05:53:46;;;;;;;1.40;1.38;;;7.50;99.90;;;;;;5020853;28;20184;-89
2022/12/22 05:56:11;;;;;;;7.57;1.35;;;7.40;99.90;;;;;;5006213;28;20111;-85
2022/12/22 05:58:38;;;;;;;1.98;1.00;;;7.40;99.90;;;;;;5012807;28;20053;-86
2022/12/22 06:01:04;;;;;;;0.73;0.65;;;7.40;99.90;;;;;;5009891;28;20045;-86
2022/12/22 06:03:30;;;;;;;1.55;1.50;;;7.40;99.90;;;;;;5007862;28;20053;-84
2022/12/22 06:05:57;;;;;;;1.20;1.20;;;7.40;99.90;;;;;;5008675;28;20037;-83
2022/12/22 06:08:23;;;;;;;0.60;0.60;;;7.40;99.90;;;;;;5006375;28;21343;-86
2022/12/22 06:10:49;;;;;;;1.48;1.40;;;7.30;99.90;;;;;;5007311;28;20057;-85
2022/12/22 06:13:15;;;;;;;;;;;7.20;99.90;;;;;;5002947;28;20053;-85
2022/12/22 06:15:41;;;;;;;0.90;0.70;;;7.10;99.90;;;;;;5023626;28;20174;-87
2022/12/22 06:18:06;;;;;;;3.28;1.35;;;7.00;99.90;;;;;;4993157;28;20180;-86
2022/12/22 06:20:32;;;;;;;2.50;2.30;;;6.90;99.90;;;;;;5023150;28;20045;-86
2022/12/22 06:22:58;;;;;;;1.30;1.23;;;6.90;99.90;;;;;;5014850;28;20052;-84
2022/12/22 06:25:24;;;;;;;0.70;0.70;;;6.80;99.90;;;;;;5028697;28;20049;-86
2022/12/22 06:27:49;;;;;;;0.60;0.60;;;6.60;99.90;;;;;;5010314;28;20044;-84
2022/12/22 06:30:15;;;;;;;0.85;0.85;;;6.60;99.90;;;;;;5031699;28;20068;-88
2022/12/22 06:32:41;;;;;;;;;;;6.60;99.90;;;;;;5025959;28;20060;-83
2022/12/22 06:35:08;;;;;;;0.80;0.80;;;6.50;99.90;;;;;;5027949;28;20051;-86
2022/12/22 06:37:34;;;;;;;1.45;1.35;;;6.50;99.90;;;;;;5028556;28;20165;-85
2022/12/22 06:40:00;;;;;;;0.47;0.47;;;6.40;99.90;;;;;;5025803;28;20756;-85
2022/12/22 06:45:10;;;;;;;0.50;0.50;;;6.30;99.90;;;;;;5026735;28;20136;-83
2022/12/22 06:47:35;;;;;;;0.60;0.60;;;6.20;99.90;;;;;;5039583;28;20049;-84
2022/12/22 06:50:01;;;;;;;0.70;0.70;;;6.10;99.90;;;;;;5029678;28;20072;-83
2022/12/22 06:52:27;;;;;;;0.70;0.70;;;6.10;99.90;;;;;;5041677;28;20045;-84
2022/12/22 06:54:52;;;;;;;1.10;1.10;;;6.20;99.90;;;;;;5007793;28;20045;-84
2022/12/22 06:57:18;;;;;;;0.50;0.50;;;6.20;99.90;;;;;;5025156;28;20555;-85
2022/12/22 06:59:44;;;;;;;0.73;0.73;;;6.10;99.90;;;;;;5025330;28;20053;-83
2022/12/22 07:02:10;;;;;;;1.13;1.02;;;6.20;99.90;;;;;;5038760;28;20048;-85
2022/12/22 07:04:36;;;;;;;0.60;0.60;;;6.30;99.90;;;;;;5006400;28;20048;-84
2022/12/22 07:07:02;;;;;;;1.42;1.38;;;6.40;99.90;;;;;;5039361;28;20333;-83
2022/12/22 07:09:28;;;;;;;0.80;0.80;;;6.60;99.90;;;;;;5007869;28;20108;-85
2022/12/22 07:11:54;;;;;;;3.53;2.40;;;6.70;99.90;;;;;;5025007;28;20051;-86
2022/12/22 07:14:20;;;;;;;2.38;2.28;;;6.70;99.90;;;;;;5046808;28;20079;-86
2022/12/22 07:16:46;;;;;;;1.13;1.13;;;6.70;99.90;;;;;;5020015;28;20045;-87
2022/12/22 07:19:12;;;;;;;;;;;6.70;99.90;;;;;;4988660;28;20241;-88
2022/12/22 07:21:37;;;;;;;2.40;2.00;;;6.70;99.90;;;;;;5055106;28;20507;-87
2022/12/22 07:24:04;;;;;;;5.32;4.18;;;6.70;99.90;;;;;;5045814;28;20135;-88
2022/12/22 07:26:29;;;;;;;7.80;1.65;;;6.50;99.90;;;;;;5042667;28;20041;-88
2022/12/22 07:28:55;;;;;;;2.50;1.58;;;6.50;99.90;;;;;;5046166;28;20041;-87
2022/12/22 07:31:21;;;;;;;1.77;1.30;;;6.40;99.90;;;;;;5046774;28;20064;-87
2022/12/22 07:33:47;;;;;;;1.17;1.15;;;6.30;99.90;;;;;;5046176;28;20056;-88
2022/12/22 07:36:15;;;;;;;0.50;0.50;;;6.30;99.90;;;;;;5048863;28;20080;-86
2022/12/22 07:38:43;;;;;;;0.63;0.63;;;6.20;99.90;;;;;;5054206;28;20092;-90
2022/12/22 07:43:57;;;;;;;0.85;0.85;;;6.20;99.90;;;;;;5053092;28;20106;-84
2022/12/22 07:46:24;;;;;;;0.50;0.50;;;6.10;99.90;;;;;;5036870;28;20138;-87
2022/12/22 07:51:36;;;;;;;1.45;1.20;;;6.10;99.90;;;;;;5038919;28;20276;-85
2022/12/22 07:54:04;;;;;;;0.73;0.73;;;6.20;99.90;;;;;;5037673;28;20079;-89
2022/12/22 07:56:30;;;;;;;1.23;1.17;;;6.00;99.90;;;;;;5059357;28;20072;-90
2022/12/22 07:58:56;;;;;;;0.90;0.90;;;6.00;99.90;;;;;;5025837;28;20111;-85
2022/12/22 08:01:22;;;;;;;0.65;0.65;;;6.00;99.90;;;;;;5045066;28;20036;-88
2022/12/22 08:03:48;;;;;;;;;;;6.10;99.90;;;;;;5048186;28;20441;-88
2022/12/22 08:06:14;;;;;;;0.60;0.60;;;6.00;99.90;;;;;;5045121;28;20012;-87
2022/12/22 08:08:39;;;;;;;0.82;0.82;;;6.00;99.90;;;;;;5049104;28;20047;-87
2022/12/22 08:11:05;;;;;;;1.05;1.05;;;5.90;99.90;;;;;;5047019;28;20056;-84
2022/12/22 08:13:31;;;;;;;0.52;0.52;;;6.00;99.90;;;;;;5038195;28;20037;-85
2022/12/22 08:16:05;;;;;;;0.63;0.63;;;6.00;99.90;;;;;;5016495;28;20041;-87
2022/12/22 08:18:32;;;;;;;1.27;1.27;;;5.90;99.90;;;;;;5034968;28;20052;-87
2022/12/22 08:20:58;;;;;;;5.57;2.35;;;5.90;99.90;;;;;;5064660;28;20069;-88
2022/12/22 08:23:23;;;;;;;2.00;1.90;;;5.90;99.90;;;;;;5035975;28;20080;-88
2022/12/22 08:25:55;;;;;;;6.20;3.97;;;5.90;99.90;;;;;;5032430;28;20057;-88
2022/12/22 08:28:22;;;;;;;1.33;1.33;;;6.00;99.90;;;;;;5013052;28;20496;-88
2022/12/22 08:30:48;;;;;;;3.00;1.60;;;5.90;99.90;;;;;;5029178;28;20065;-87
2022/12/22 08:33:14;;;;;;;0.60;0.60;;;6.00;99.90;;;;;;5029464;28;20049;-86
2022/12/22 08:35:40;;;;;;;0.60;0.60;;;6.00;99.90;;;;;;5032381;28;20045;-87
2022/12/22 08:38:06;;;;;;;;;;;6.00;99.90;;;;;;5014399;28;20053;-92
2022/12/22 08:40:32;;;;;;;1.42;1.40;;;5.90;99.90;;;;;;5012989;28;19921;-84
2022/12/22 08:43:01;;;;;;;;;;;5.90;99.90;;;;;;5028751;28;20049;-89
2022/12/22 08:45:26;;;;;;;0.60;0.60;;;6.00;99.90;;;;;;5031333;28;20132;-86
2022/12/22 08:47:52;;;;;;;1.95;1.85;;;5.90;99.90;;;;;;5017402;28;20105;-89
2022/12/22 08:50:18;;;;;;;1.55;1.25;;;5.90;99.90;;;;;;4988347;28;20085;-84
2022/12/22 08:52:44;;;;;;;1.75;0.93;;;5.90;99.90;;;;;;5041879;28;20045;-87
2022/12/22 08:55:10;;;;;;;6.65;3.63;;;6.00;99.90;;;;;;5001948;28;20500;-85
2022/12/22 08:57:36;;;;;;;;;;;6.40;99.90;;;;;;5005653;28;20326;-86
2022/12/22 09:00:05;;;;;;;2.55;2.35;;;5.90;99.90;;;;;;5018053;28;19935;-88
2022/12/22 09:02:31;;;;;;;0.80;0.80;;;6.00;99.90;;;;;;5016259;28;20046;-89
2022/12/22 09:04:56;;;;;;;2.17;1.52;;;6.90;99.90;;;;;;4994848;28;20049;-87
2022/12/22 09:07:22;;;;;;;0.90;0.90;;;6.00;99.90;;;;;;4994502;28;20057;-87
2022/12/22 09:09:48;;;;;;;0.60;0.60;;;6.00;99.90;;;;;;4998855;28;20080;-85
2022/12/22 09:12:13;;;;;;;0.50;0.50;;;6.00;99.90;;;;;;5019091;28;20179;-88
2022/12/22 09:14:39;;;;;;;2.33;1.75;;;6.00;99.90;;;;;;5004701;28;20064;-85
2022/12/22 09:17:05;;;;;;;0.95;0.95;;;6.00;99.90;;;;;;5020556;28;20050;-87
2022/12/22 09:19:31;;;;;;;0.50;0.50;;;6.10;99.90;;;;;;5032597;28;20037;-86
2022/12/22 09:21:56;;;;;;;2.15;2.05;;;6.10;99.90;;;;;;5019361;28;20059;-90
2022/12/22 09:24:22;;;;;;;0.60;0.60;;;6.10;99.90;;;;;;5040511;28;20637;-88
2022/12/22 09:26:48;;;;;;;0.65;0.65;;;6.10;99.90;;;;;;5042126;28;20056;-86
2022/12/22 09:29:14;;;;;;;;;;;6.20;99.90;;;;;;5047023;28;20083;-88
2022/12/22 09:31:43;;;;;;;1.38;0.95;;;6.20;99.90;;;;;;5065993;28;19920;-88
2022/12/22 09:34:09;;;;;;;0.82;0.82;;;6.20;99.90;;;;;;5068014;28;20509;-88
2022/12/22 09:36:38;;;;;;;;;;;6.30;99.90;;;;;;5064077;28;20024;-88
2022/12/22 09:39:06;;;;;;;0.70;0.70;;;6.30;99.90;;;;;;5035567;28;20439;-88
2022/12/22 09:41:46;;;;;;;3.22;0.95;;;6.30;99.90;;;;;;5052005;28;20368;-88
2022/12/22 09:44:30;;;;;;;0.60;0.60;;;6.30;99.90;;;;;;5052877;28;20041;-87
2022/12/22 09:46:59;;;;;;;1.95;1.00;;;6.30;99.90;;;;;;5054299;28;20072;-89
2022/12/22 09:49:25;;;;;;;0.93;0.93;;;6.30;99.90;;;;;;5048474;28;20044;-88
2022/12/22 09:51:55;;;;;;;0.70;0.70;;;6.40;99.90;;;;;;5051691;28;20040;-87
2022/12/22 09:54:21;;;;;;;0.43;0.43;;;6.40;99.90;;;;;;5046924;28;20060;-84
2022/12/22 09:56:47;;;;;;;;;;;6.50;99.90;;;;;;5048078;28;20040;-90
2022/12/22 09:59:18;;;;;;;2.88;0.90;;;6.60;99.90;;;;;;5069265;28;19970;-89
2022/12/22 10:02:04;;;;;;;0.50;0.50;;;6.70;99.90;;;;;;5033122;28;20040;-89
2022/12/22 10:04:36;;;;;;;0.95;0.95;;;6.70;99.90;;;;;;5045087;28;20048;-88
2022/12/22 10:07:20;;;;;;;2.05;1.95;;;6.80;99.90;;;;;;5049156;28;20657;-89
2022/12/22 10:09:45;;;;;;;0.82;0.82;;;6.90;99.90;;;;;;5050240;28;20056;-89
2022/12/22 10:12:18;;;;;;;0.50;0.50;;;7.00;99.90;;;;;;5047688;28;20052;-88
2022/12/22 10:14:47;;;;;;;2.05;1.17;;;7.00;99.90;;;;;;5036971;28;20073;-89
2022/12/22 10:17:19;;;;;;;0.82;0.82;;;7.00;99.90;;;;;;5044357;28;20052;-87
2022/12/22 10:19:45;;;;;;;0.73;0.73;;;7.00;99.90;;;;;;5036252;28;20136;-88
2022/12/22 10:22:28;;;;;;;1.60;1.05;;;6.90;99.90;;;;;;5046392;28;20091;-89
2022/12/22 10:24:53;;;;;;;3.30;3.05;;;7.00;99.90;;;;;;5047253;28;20063;-87
2022/12/22 10:27:22;;;;;;;0.65;0.65;;;7.10;99.90;;;;;;5031638;28;20508;-90
2022/12/22 10:29:48;;;;;;;0.80;0.80;;;7.10;99.90;;;;;;5050825;28;20474;-87
2022/12/22 10:32:17;;;;;;;1.30;1.25;;;7.10;99.90;;;;;;5013717;28;20094;-87
2022/12/22 10:35:05;;;;;;;0.50;0.50;;;7.20;99.90;;;;;;5046099;28;20041;-89
2022/12/22 10:37:36;;;;;;;2.25;2.15;;;7.30;99.90;;;;;;5062070;28;20123;-86
2022/12/22 10:40:32;;;;;;;0.50;0.50;;;7.30;99.90;;;;;;5045675;28;20059;-86
2022/12/22 10:42:58;;;;;;;0.40;0.40;;;7.20;99.90;;;;;;5036117;28;20053;-89
2022/12/22 10:45:26;;;;;;;0.75;0.75;;;7.20;99.90;;;;;;5043088;28;20044;-85
2022/12/22 10:47:54;;;;;;;1.27;1.20;;;7.30;99.90;;;;;;5033515;28;20074;-88
2022/12/22 10:50:21;;;;;;;1.55;1.40;;;7.30;99.90;;;;;;5045331;28;20076;-89
2022/12/22 10:52:56;;;;;;;2.00;1.90;;;7.30;99.90;;;;;;5046439;28;20505;-88
2022/12/22 10:55:31;;;;;;;0.65;0.65;;;7.40;99.90;;;;;;5040444;28;20072;-88
2022/12/22 10:58:09;;;;;;;0.70;0.70;;;7.40;99.90;;;;;;5045615;28;20086;-90
2022/12/22 11:00:37;;;;;;;0.50;0.50;;;7.40;99.90;;;;;;5045248;28;20048;-88
2022/12/22 11:03:06;;;;;;;0.65;0.65;;;7.30;99.90;;;;;;5037353;28;20049;-90
2022/12/22 11:05:32;;;;;;;0.60;0.60;;;7.30;99.90;;;;;;5046637;28;20048;-91
2022/12/22 11:08:15;;;;;;;0.82;0.82;;;7.30;99.90;;;;;;5054477;28;20060;-87
2022/12/22 11:10:55;;;;;;;1.65;1.20;;;7.30;99.90;;;;;;5065932;28;20048;-90
2022/12/22 11:13:42;;;;;;;0.80;0.80;;;7.40;99.90;;;;;;5072454;28;20433;-91
2022/12/22 11:16:30;;;;;;;0.50;0.50;;;7.40;99.90;;;;;;5033463;28;20061;-86
2022/12/22 11:19:38;;;;;;;0.60;0.60;;;7.40;99.90;;;;;;5050142;28;20428;-90
2022/12/22 11:22:17;;;;;;;0.50;0.50;;;7.40;99.90;;;;;;5009677;28;20053;-89
2022/12/22 11:24:57;;;;;;;2.15;2.08;;;7.40;99.90;;;;;;5069341;28;20420;-87
2022/12/22 11:27:40;;;;;;;0.50;0.50;;;7.50;99.90;;;;;;5050290;28;20052;-88
2022/12/22 11:30:19;;;;;;;0.60;0.60;;;7.50;99.90;;;;;;5046775;28;20047;-88
2022/12/22 11:32:57;;;;;;;0.40;0.40;;;7.60;99.90;;;;;;5053725;28;21618;-89
2022/12/22 11:35:31;;;;;;;1.88;1.83;;;7.60;99.90;;;;;;5051451;28;20429;-89
2022/12/22 11:38:23;;;;;;;0.82;0.82;;;7.70;99.90;;;;;;5033986;28;20044;-90
2022/12/22 11:41:25;;;;;;;0.30;0.30;;;7.70;99.90;;;;;;5045342;28;20059;-84
2022/12/22 11:44:02;;;;;;;3.92;1.55;;;7.70;99.90;;;;;;5062600;28;20514;-87
2022/12/22 11:46:45;;;;;;;8.15;1.92;;;7.60;99.90;;;;;;5045974;28;20232;-87
2022/12/22 11:49:22;;;;;;;0.50;0.50;;;7.60;99.90;;;;;;5044672;28;20072;-88
2022/12/22 11:52:39;;;;;;;0.40;0.40;;;7.60;99.90;;;;;;5044691;28;20085;-88
2022/12/22 11:55:27;;;;;;;1.05;1.05;;;7.60;99.90;;;;;;5009078;28;20096;-90
2022/12/22 11:58:12;;;;;;;1.40;1.08;;;7.60;99.90;;;;;;5029255;28;20048;-89
2022/12/22 12:01:20;;;;;;;0.60;0.60;;;7.60;99.90;;;;;;5042709;28;20048;-89
2022/12/22 12:04:10;;;;;;;0.77;0.77;;;7.70;99.90;;;;;;5011524;28;20496;-89
2022/12/22 12:06:57;;;;;;;3.95;1.35;;;7.70;99.90;;;;;;5035249;28;20531;-85
2022/12/22 12:09:46;;;;;;;21.55;2.22;;;7.70;99.90;;;;;;5038041;28;20048;-85
2022/12/22 12:12:34;;;;;;;0.95;0.82;;;7.80;99.90;;;;;;5040846;28;20048;-86
2022/12/22 12:15:02;;;;;;;0.57;0.57;;;7.80;99.90;;;;;;5050998;28;21456;-86
2022/12/22 12:17:55;;;;;;;0.60;0.60;;;7.90;99.90;;;;;;5025308;28;20049;-86
2022/12/22 12:20:24;;;;;;;0.60;0.60;;;7.90;99.90;;;;;;5034839;28;20056;-86
2022/12/22 12:22:59;;;;;;;1.55;1.00;;;8.00;99.90;;;;;;5039367;28;20052;-89
2022/12/22 12:25:35;;;;;;;0.68;0.68;;;8.00;99.90;;;;;;5044398;28;20086;-86
2022/12/22 12:28:15;;;;;;;2.08;0.63;;;8.00;99.90;;;;;;5061367;28;20055;-91
2022/12/22 12:31:01;;;;;;;0.75;0.63;;;8.10;99.90;;;;;;5040928;28;20222;-88
2022/12/22 12:33:51;;;;;;;0.60;0.60;;;8.10;99.90;;;;;;5037570;28;20047;-85
2022/12/22 12:36:53;;;;;;;1.50;1.05;;;8.10;99.90;;;;;;5042658;28;20077;-88
2022/12/22 12:39:35;;;;;;;1.05;1.02;;;8.10;99.90;;;;;;5017576;28;20060;-86
2022/12/22 12:42:15;;;;;;;0.57;0.57;;;8.20;99.90;;;;;;5056373;28;20048;-88
2022/12/22 12:44:41;;;;;;;4.53;4.13;;;8.20;99.90;;;;;;5038501;28;20587;-86
2022/12/22 12:47:26;;;;;;;;;;;8.20;99.90;;;;;;5040988;28;21432;-90
2022/12/22 12:49:59;;;;;;;0.50;0.50;;;8.30;99.90;;;;;;5035134;28;19924;-85
2022/12/22 12:52:42;;;;;;;0.60;0.60;;;8.20;99.90;;;;;;5034185;28;20087;-85
2022/12/22 12:55:32;;;;;;;0.50;0.50;;;8.20;99.90;;;;;;5040324;28;20052;-85
2022/12/22 12:58:00;;;;;;;0.50;0.50;;;8.20;99.90;;;;;;5038762;28;20044;-87
2022/12/22 13:00:32;;;;;;;0.50;0.50;;;8.20;99.90;;;;;;5039810;28;20083;-88
2022/12/22 13:03:00;;;;;;;0.60;0.60;;;8.20;99.90;;;;;;5059333;28;20040;-85
2022/12/22 13:05:31;;;;;;;0.40;0.40;;;8.20;99.90;;;;;;5045071;28;20060;-90
2022/12/22 13:08:14;;;;;;;0.50;0.50;;;8.20;99.90;;;;;;5045303;28;20052;-88
2022/12/22 13:11:07;;;;;;;0.88;0.88;;;8.20;99.90;;;;;;5059039;28;20056;-84
2022/12/22 13:13:38;;;;;;;9.73;0.70;;;8.20;99.90;;;;;;5046538;28;20048;-89
2022/12/22 13:16:04;;;;;;;1.10;1.10;;;8.30;99.90;;;;;;5024676;28;20135;-89
2022/12/22 13:18:32;;;;;;;0.57;0.57;;;8.30;99.90;;;;;;5045177;28;20158;-88
2022/12/22 13:21:14;;;;;;;0.50;0.50;;;8.30;99.90;;;;;;5040872;28;20805;-86
2022/12/22 13:23:56;;;;;;;0.60;0.60;;;8.30;99.90;;;;;;5042415;28;20817;-87
2022/12/22 13:26:36;;;;;;;0.70;0.70;;;8.40;99.90;;;;;;5041834;28;20084;-90
2022/12/22 13:29:27;;;;;;;0.50;0.50;;;8.40;99.90;;;;;;5022409;28;20076;-89
2022/12/22 13:32:01;;;;;;;0.40;0.40;;;8.40;99.90;;;;;;5034634;28;20067;-89
2022/12/22 13:34:57;;;;;;;0.50;0.50;;;8.40;99.90;;;;;;5049724;28;20039;-87
2022/12/22 13:37:26;;;;;;;0.40;0.40;;;8.40;99.90;;;;;;5047325;28;20098;-89
2022/12/22 13:40:11;;;;;;;0.50;0.50;;;8.40;99.90;;;;;;5044752;28;20107;-88
2022/12/22 13:43:01;;;;;;;3.85;0.68;;;8.40;99.90;;;;;;5046878;28;20127;-90
2022/12/22 13:45:37;;;;;;;0.57;0.57;;;8.40;99.90;;;;;;5068254;28;20166;-87
2022/12/22 13:48:25;;;;;;;0.60;0.60;;;8.40;99.90;;;;;;5030015;28;20047;-90
2022/12/22 13:50:53;;;;;;;1.15;1.05;;;8.40;99.90;;;;;;5047590;28;20400;-91
2022/12/22 13:53:42;;;;;;;0.40;0.40;;;8.40;99.90;;;;;;5050578;28;20052;-88
2022/12/22 13:56:13;;;;;;;1.10;0.95;;;8.40;99.90;;;;;;5052360;28;20055;-84
2022/12/22 13:58:44;;;;;;;0.50;0.50;;;8.40;99.90;;;;;;5046819;28;20056;-85
2022/12/22 14:01:09;;;;;;;0.38;0.38;;;8.30;99.90;;;;;;5059039;28;20056;-89
2022/12/22 14:03:36;;;;;;;0.50;0.50;;;8.40;99.90;;;;;;5050066;28;20188;-89
2022/12/22 14:06:25;;;;;;;0.52;0.52;;;8.50;99.90;;;;;;5043253;28;20064;-87
2022/12/22 14:08:52;;;;;;;2.45;2.35;;;8.50;99.90;;;;;;5044513;28;20094;-90
2022/12/22 14:11:18;;;;;;;0.40;0.40;;;8.40;99.90;;;;;;5049572;28;20067;-88
2022/12/22 14:13:44;;;;;;;0.50;0.50;;;8.40;99.90;;;;;;5007721;28;20045;-88
2022/12/22 14:16:14;;;;;;;0.50;0.50;;;8.40;99.90;;;;;;5028968;28;20145;-88
2022/12/22 14:18:40;;;;;;;0.75;0.75;;;8.40;99.90;;;;;;5046120;28;20048;-88
2022/12/22 14:21:06;;;;;;;;;;;8.40;99.90;;;;;;5042536;28;20121;-89
2022/12/22 14:23:40;;;;;;;1.02;1.02;;;8.40;99.90;;;;;;5060012;28;19928;-87
2022/12/22 14:26:11;;;;;;;0.40;0.40;;;8.40;99.90;;;;;;5054909;28;20044;-89
2022/12/22 14:28:48;;;;;;;0.55;0.55;;;8.50;99.90;;;;;;5040213;28;20041;-90
2022/12/22 14:31:15;;;;;;;0.40;0.40;;;8.40;99.90;;;;;;5055321;28;20060;-86
2022/12/22 14:33:52;;;;;;;0.60;0.60;;;8.40;99.90;;;;;;5025862;28;20041;-90
2022/12/22 14:36:23;;;;;;;0.50;0.50;;;8.40;99.90;;;;;;5049408;28;20044;-85
2022/12/22 14:38:58;;;;;;;1.85;1.70;;;8.10;99.90;;;;;;5052514;28;20063;-84
2022/12/22 14:41:50;;;;;;;0.40;0.40;;;8.50;99.90;;;;;;5051063;28;20042;-84
2022/12/22 14:44:21;;;;;;;0.77;0.77;;;8.50;99.90;;;;;;5070663;28;20068;-83
2022/12/22 14:47:13;;;;;;;0.45;0.45;;;8.40;99.90;;;;;;5053342;28;20040;-87
2022/12/22 14:49:56;;;;;;;0.50;0.50;;;8.40;99.90;;;;;;5044861;28;20068;-89
2022/12/22 14:52:54;;;;;;;2.97;2.72;;;8.40;99.90;;;;;;5033252;28;20060;-89
2022/12/22 14:55:41;;;;;;;0.43;0.43;;;8.40;99.90;;;;;;5033879;28;20077;-84
2022/12/22 14:58:22;;;;;;;0.45;0.45;;;8.30;99.90;;;;;;5017766;28;20056;-86
2022/12/22 15:01:16;;;;;;;0.70;0.70;;;8.30;99.90;;;;;;5034924;28;20079;-87
2022/12/22 15:03:43;;;;;;;0.52;0.52;;;8.20;99.90;;;;;;5039589;28;20049;-92
2022/12/22 15:06:27;;;;;;;0.47;0.47;;;8.20;99.90;;;;;;5057548;28;20381;-88
2022/12/22 15:09:07;;;;;;;0.50;0.50;;;8.20;99.90;;;;;;5041617;28;20268;-89
2022/12/22 15:11:35;;;;;;;1.17;0.60;;;8.10;99.90;;;;;;5037663;28;20053;-86
2022/12/22 15:14:01;;;;;;;0.50;0.50;;;8.10;99.90;;;;;;5045004;28;20098;-87
2022/12/22 15:16:27;;;;;;;1.75;1.67;;;8.10;99.90;;;;;;5060505;28;20131;-90
2022/12/22 15:18:53;;;;;;;0.60;0.60;;;8.10;99.90;;;;;;5027987;28;20101;-85
2022/12/22 15:21:19;;;;;;;0.57;0.57;;;8.10;99.90;;;;;;5045164;28;20060;-88
2022/12/22 15:23:45;;;;;;;;;;;8.00;99.90;;;;;;5023130;28;20154;-88
2022/12/22 15:26:11;;;;;;;0.60;0.60;;;8.00;99.90;;;;;;5035738;28;19929;-89
2022/12/22 15:28:37;;;;;;;;;;;8.00;99.90;;;;;;5019567;28;20106;-90
2022/12/22 15:31:05;;;;;;;0.40;0.40;;;8.00;99.90;;;;;;5053367;28;19925;-91
2022/12/22 15:33:31;;;;;;;0.47;0.47;;;8.00;99.90;;;;;;5032713;28;20132;-89
2022/12/22 15:35:57;;;;;;;0.50;0.50;;;7.90;99.90;;;;;;5019246;28;20053;-85
2022/12/22 15:38:24;;;;;;;0.60;0.60;;;7.90;99.90;;;;;;5036278;28;20055;-88
2022/12/22 15:40:51;;;;;;;0.60;0.60;;;7.90;99.90;;;;;;5014853;28;20055;-89
2022/12/22 15:43:17;;;;;;;0.50;0.50;;;7.90;99.90;;;;;;5018798;28;20037;-91
2022/12/22 15:45:43;;;;;;;;;;;7.80;99.90;;;;;;5039002;28;20049;-91
2022/12/22 15:48:17;;;;;;;0.50;0.50;;;7.80;99.90;;;;;;5053114;28;20038;-85
2022/12/22 15:50:43;;;;;;;0.50;0.50;;;7.80;99.90;;;;;;5039960;28;20071;-84
2022/12/22 15:53:18;;;;;;;0.50;0.50;;;7.80;99.90;;;;;;5018137;28;20112;-88
2022/12/22 15:55:47;;;;;;;1.13;1.13;;;7.70;99.90;;;;;;5022386;28;20185;-87
2022/12/22 15:58:16;;;;;;;0.50;0.50;;;7.70;99.90;;;;;;5032892;28;20057;-90
2022/12/22 16:00:42;;;;;;;0.70;0.70;;;7.70;99.90;;;;;;5044328;28;20078;-89
2022/12/22 16:03:09;;;;;;;0.73;0.73;;;7.60;99.90;;;;;;5045787;28;20052;-91
2022/12/22 16:05:35;;;;;;;1.38;0.88;;;7.60;99.90;;;;;;5028726;28;20060;-90
2022/12/22 16:08:02;;;;;;;0.50;0.50;;;7.60;99.90;;;;;;5044348;28;20045;-85
2022/12/22 16:10:30;;;;;;;1.20;1.20;;;7.60;99.90;;;;;;5042317;28;20460;-88
2022/12/22 16:12:59;;;;;;;0.77;0.77;;;7.60;99.90;;;;;;5027053;28;20037;-88
2022/12/22 16:15:30;;;;;;;0.50;0.50;;;7.60;99.90;;;;;;5043534;28;20049;-87
2022/12/22 16:17:59;;;;;;;0.80;0.80;;;7.70;99.90;;;;;;5028975;28;20059;-87
2022/12/22 16:20:28;;;;;;;0.50;0.50;;;7.60;99.90;;;;;;5052631;28;20049;-87
2022/12/22 16:22:55;;;;;;;0.47;0.47;;;7.60;99.90;;;;;;5048622;28;20055;-87
2022/12/22 16:25:26;;;;;;;1.15;1.13;;;7.60;99.90;;;;;;5028947;28;20191;-87
2022/12/22 16:27:53;;;;;;;1.05;0.70;;;7.60;99.90;;;;;;5050515;28;20872;-87
2022/12/22 16:30:24;;;;;;;1.67;1.58;;;7.60;99.90;;;;;;5049504;28;20064;-89
2022/12/22 16:32:50;;;;;;;0.80;0.80;;;7.60;99.90;;;;;;5048814;28;20060;-90
2022/12/22 16:35:18;;;;;;;0.55;0.55;;;7.10;99.90;;;;;;5043316;28;20135;-88
2022/12/22 16:37:47;;;;;;;0.95;0.95;;;7.50;99.90;;;;;;5041491;28;20060;-87
2022/12/22 16:40:14;;;;;;;0.47;0.47;;;7.50;99.90;;;;;;5039038;28;20075;-87
2022/12/22 16:42:49;;;;;;;0.65;0.65;;;7.50;99.90;;;;;;5039867;28;20103;-90
2022/12/22 16:45:21;;;;;;;1.13;0.98;;;7.40;99.90;;;;;;5041062;28;20395;-85
2022/12/22 16:47:51;;;;;;;1.05;0.73;;;7.50;99.90;;;;;;5039939;28;20048;-87
2022/12/22 16:50:20;;;;;;;0.65;0.65;;;7.40;99.90;;;;;;5051326;28;20043;-84
2022/12/22 16:52:48;;;;;;;0.57;0.57;;;7.40;99.90;;;;;;5054250;28;20565;-84
2022/12/22 16:55:15;;;;;;;0.52;0.52;;;7.40;99.90;;;;;;5049525;28;20068;-84
2022/12/22 16:57:41;;;;;;;1.08;1.08;;;7.40;99.90;;;;;;5074896;28;20049;-86
2022/12/22 17:00:09;;;;;;;0.93;0.88;;;7.40;99.90;;;;;;5050438;28;20120;-91
2022/12/22 17:02:35;;;;;;;1.08;0.77;;;7.40;99.90;;;;;;5038082;28;20154;-84
2022/12/22 17:05:01;;;;;;;0.60;0.60;;;7.40;99.90;;;;;;5058366;28;20058;-89